Time;durP1;ratioP1;P1;durP2;ratioP2;P2;SDS_P1;SDS_P2;PMS_P1;PMS_P2;Temp;Humidity;BMP_temperature;BMP_pressure;BME280_temperature;BME280_humidity;BME280_pressure;Samples;Min_cycle;Max_cycle;Signal;HPM_P1;HPM_P2
2022/11/21 00:00:21;;;;;;;18.85;9.77;;;;;;;;;;4992946;28;20045;-82
2022/11/21 00:02:47;;;;;;;17.00;9.07;;;;;;;;;;4989985;28;20478;-82
2022/11/21 00:05:13;;;;;;;18.35;9.95;;;;;;;;;;4985354;28;20030;-82
2022/11/21 00:07:38;;;;;;;20.52;11.35;;;;;;;;;;4990997;28;20451;-82
2022/11/21 00:10:04;;;;;;;17.05;9.63;;;;;;;;;;4991585;28;20033;-82
2022/11/21 00:12:30;;;;;;;18.55;9.95;;;;;;;;;;4989635;28;20425;-82
2022/11/21 00:14:55;;;;;;;18.92;9.93;;;;;;;;;;4989544;28;20033;-82
2022/11/21 00:17:20;;;;;;;17.92;9.35;;;;;;;;;;4991171;28;20157;-82
2022/11/21 00:19:46;;;;;;;18.75;10.07;;;;;;;;;;4983354;28;20363;-82
2022/11/21 00:22:11;;;;;;;20.48;10.10;;;;;;;;;;4990200;28;20447;-82
2022/11/21 00:24:37;;;;;;;17.55;9.15;;;;;;;;;;4989449;28;20030;-82
2022/11/21 00:27:02;;;;;;;17.05;9.48;;;;;;;;;;4993480;28;20481;-82
2022/11/21 00:29:27;;;;;;;18.73;9.98;;;;;;;;;;4989765;28;20030;-83
2022/11/21 00:31:53;;;;;;;19.48;10.65;;;;;;;;;;4975539;28;22235;-82
2022/11/21 00:34:18;;;;;;;21.05;10.95;;;;;;;;;;4988511;28;20022;-82
2022/11/21 00:36:43;;;;;;;23.85;11.20;;;;;;;;;;5009458;28;20440;-82
2022/11/21 00:39:09;;;;;;;20.90;10.60;;;;;;;;;;4989894;28;20022;-82
2022/11/21 00:41:34;;;;;;;23.35;10.55;;;;;;;;;;4985618;28;20398;-82
2022/11/21 00:43:59;;;;;;;20.08;10.20;;;;;;;;;;4989354;28;20137;-82
2022/11/21 00:46:25;;;;;;;17.80;10.52;;;;;;;;;;4988641;28;20148;-82
2022/11/21 00:48:50;;;;;;;25.40;11.40;;;;;;;;;;4989280;28;20025;-82
2022/11/21 00:51:16;;;;;;;21.48;10.88;;;;;;;;;;4988670;28;20026;-83
2022/11/21 00:53:41;;;;;;;20.70;10.25;;;;;;;;;;4980613;28;21960;-83
2022/11/21 00:56:07;;;;;;;23.33;11.02;;;;;;;;;;4985117;28;20025;-82
2022/11/21 00:58:32;;;;;;;24.27;11.85;;;;;;;;;;5002305;28;20030;-82
2022/11/21 01:01:07;;;;;;;22.40;11.38;;;;;;;;;;5006561;28;20422;-82
2022/11/21 01:03:33;;;;;;;23.10;11.38;;;;;;;;;;4983514;28;20033;-82
2022/11/21 01:06:03;;;;;;;24.25;10.57;;;;;;;;;;4983711;28;20026;-82
2022/11/21 01:08:29;;;;;;;26.05;11.43;;;;;;;;;;5002668;28;20504;-82
2022/11/21 01:10:54;;;;;;;23.70;11.23;;;;;;;;;;5007503;28;20100;-82
2022/11/21 01:13:20;;;;;;;23.20;10.90;;;;;;;;;;4983991;28;20030;-82
2022/11/21 01:15:45;;;;;;;23.77;11.10;;;;;;;;;;5008790;28;20053;-82
2022/11/21 01:18:10;;;;;;;27.35;11.93;;;;;;;;;;4999349;28;20037;-82
2022/11/21 01:20:39;;;;;;;28.40;11.45;;;;;;;;;;5004464;28;20545;-82
2022/11/21 01:23:04;;;;;;;28.42;11.98;;;;;;;;;;5005111;28;20793;-82
2022/11/21 01:25:32;;;;;;;26.08;12.30;;;;;;;;;;5005996;28;20025;-82
2022/11/21 01:27:58;;;;;;;25.05;11.32;;;;;;;;;;4992161;28;20133;-82
2022/11/21 01:30:23;;;;;;;23.70;11.07;;;;;;;;;;4985296;28;20132;-83
2022/11/21 01:32:49;;;;;;;27.70;11.90;;;;;;;;;;5002116;28;20022;-83
2022/11/21 01:35:14;;;;;;;27.00;11.10;;;;;;;;;;4986507;28;20094;-82
2022/11/21 01:37:40;;;;;;;24.20;11.80;;;;;;;;;;4987982;28;20648;-82
2022/11/21 01:40:05;;;;;;;26.50;12.32;;;;;;;;;;4988878;28;20402;-82
2022/11/21 01:42:52;;;;;;;25.60;11.00;;;;;;;;;;5001801;28;20026;-82
2022/11/21 01:45:55;;;;;;;26.60;11.68;;;;;;;;;;4981508;28;20038;-83
2022/11/21 01:48:26;;;;;;;26.95;11.73;;;;;;;;;;5005855;28;20551;-82
2022/11/21 01:50:54;;;;;;;21.58;10.57;;;;;;;;;;4983059;28;20026;-82
2022/11/21 01:53:19;;;;;;;22.90;11.82;;;;;;;;;;4988357;28;20144;-82
2022/11/21 01:55:45;;;;;;;21.25;10.35;;;;;;;;;;4984755;28;20113;-83
2022/11/21 01:58:11;;;;;;;23.00;10.07;;;;;;;;;;4981830;28;20446;-82
2022/11/21 02:00:39;;;;;;;22.00;10.35;;;;;;;;;;4984293;28;20053;-83
2022/11/21 02:03:09;;;;;;;22.40;9.88;;;;;;;;;;4982376;28;20029;-82
2022/11/21 02:05:36;;;;;;;24.08;10.88;;;;;;;;;;4991146;28;20073;-83
2022/11/21 02:08:07;;;;;;;23.70;10.73;;;;;;;;;;4988082;28;20022;-82
2022/11/21 02:10:35;;;;;;;22.88;9.80;;;;;;;;;;4987960;28;20038;-82
2022/11/21 02:13:01;;;;;;;26.20;11.35;;;;;;;;;;5005693;28;20018;-82
2022/11/21 02:15:28;;;;;;;18.80;9.15;;;;;;;;;;4985598;28;20493;-82
2022/11/21 02:17:54;;;;;;;24.75;10.73;;;;;;;;;;4983528;28;20319;-83
2022/11/21 02:20:25;;;;;;;21.17;10.13;;;;;;;;;;4987665;28;20536;-82
2022/11/21 02:23:02;;;;;;;23.77;11.25;;;;;;;;;;4995458;28;20407;-83
2022/11/21 02:25:34;;;;;;;23.40;10.48;;;;;;;;;;4977427;28;20150;-82
2022/11/21 02:28:02;;;;;;;23.17;10.93;;;;;;;;;;4976352;28;20395;-82
2022/11/21 02:30:30;;;;;;;22.70;10.88;;;;;;;;;;4980958;28;20505;-82
2022/11/21 02:32:56;;;;;;;25.08;10.35;;;;;;;;;;4979222;28;20124;-83
2022/11/21 02:35:22;;;;;;;20.85;10.02;;;;;;;;;;4978899;28;20026;-82
2022/11/21 02:37:55;;;;;;;21.85;10.07;;;;;;;;;;4982959;28;20030;-83
2022/11/21 02:40:39;;;;;;;19.48;8.77;;;;;;;;;;4980426;28;20026;-82
2022/11/21 02:43:13;;;;;;;18.77;9.90;;;;;;;;;;4982652;28;20122;-82
2022/11/21 02:45:41;;;;;;;22.55;9.55;;;;;;;;;;4985305;28;20394;-83
2022/11/21 02:48:06;;;;;;;22.92;11.18;;;;;;;;;;4981428;28;20026;-82
2022/11/21 02:50:34;;;;;;;20.48;9.43;;;;;;;;;;4977906;28;20045;-83
2022/11/21 02:53:02;;;;;;;22.27;9.60;;;;;;;;;;4983229;28;20026;-82
2022/11/21 02:55:27;;;;;;;19.70;9.82;;;;;;;;;;4980216;28;20053;-82
2022/11/21 02:57:53;;;;;;;26.95;11.07;;;;;;;;;;4983358;28;20038;-82
2022/11/21 03:00:18;;;;;;;22.88;10.98;;;;;;;;;;4994729;28;20037;-82
2022/11/21 03:02:44;;;;;;;24.48;11.73;;;;;;;;;;4982646;28;20451;-84
2022/11/21 03:05:13;;;;;;;24.23;10.27;;;;;;;;;;4981716;28;21458;-82
2022/11/21 03:07:39;;;;;;;23.60;10.68;;;;;;;;;;4981625;28;20479;-82
2022/11/21 03:10:05;;;;;;;25.05;10.70;;;;;;;;;;4985680;28;20030;-83
2022/11/21 03:12:30;;;;;;;22.50;10.20;;;;;;;;;;4984993;28;20105;-83
2022/11/21 03:14:56;;;;;;;25.05;10.55;;;;;;;;;;4978942;28;20080;-82
2022/11/21 03:17:21;;;;;;;27.20;11.35;;;;;;;;;;4978183;28;20025;-83
2022/11/21 03:19:46;;;;;;;22.92;10.77;;;;;;;;;;4982853;28;20035;-82
2022/11/21 03:22:13;;;;;;;25.98;11.63;;;;;;;;;;4967403;28;20039;-83
2022/11/21 03:24:39;;;;;;;25.92;11.70;;;;;;;;;;4961182;28;20027;-83
2022/11/21 03:27:04;;;;;;;24.88;11.40;;;;;;;;;;4962700;28;20054;-82
2022/11/21 03:29:29;;;;;;;26.42;11.18;;;;;;;;;;4959784;28;20031;-82
2022/11/21 03:31:55;;;;;;;24.67;11.30;;;;;;;;;;4960574;28;20117;-83
2022/11/21 03:34:20;;;;;;;23.25;10.18;;;;;;;;;;4963898;28;20110;-82
2022/11/21 03:36:45;;;;;;;21.20;9.93;;;;;;;;;;4967471;28;20031;-83
2022/11/21 03:39:11;;;;;;;27.63;10.45;;;;;;;;;;4964623;28;20456;-82
2022/11/21 03:41:37;;;;;;;22.60;10.25;;;;;;;;;;4970591;28;20039;-82
2022/11/21 03:44:05;;;;;;;22.63;10.60;;;;;;;;;;4966546;28;20026;-82
2022/11/21 03:46:33;;;;;;;26.70;11.20;;;;;;;;;;4964423;28;20035;-82
2022/11/21 03:48:58;;;;;;;25.77;11.20;;;;;;;;;;4968972;28;20039;-82
2022/11/21 03:51:24;;;;;;;26.48;11.85;;;;;;;;;;4960149;28;20058;-83
2022/11/21 03:53:49;;;;;;;24.30;11.23;;;;;;;;;;4960273;28;20038;-82
2022/11/21 03:56:15;;;;;;;24.02;10.60;;;;;;;;;;4965696;28;20023;-82
2022/11/21 03:58:41;;;;;;;24.05;11.05;;;;;;;;;;4964107;28;20046;-83
2022/11/21 04:01:06;;;;;;;24.55;11.30;;;;;;;;;;4969820;28;20447;-83
2022/11/21 04:03:32;;;;;;;21.98;10.88;;;;;;;;;;4965040;28;20062;-82
2022/11/21 04:05:57;;;;;;;26.17;10.57;;;;;;;;;;4963045;28;20038;-82
2022/11/21 04:08:23;;;;;;;23.15;10.35;;;;;;;;;;4960847;28;20029;-82
2022/11/21 04:10:50;;;;;;;27.65;11.32;;;;;;;;;;4969754;28;20122;-83
2022/11/21 04:13:16;;;;;;;24.60;10.73;;;;;;;;;;4969642;28;20035;-83
2022/11/21 04:15:41;;;;;;;27.15;11.85;;;;;;;;;;4969609;28;20558;-83
2022/11/21 04:18:07;;;;;;;22.70;10.77;;;;;;;;;;4969318;28;20031;-83
2022/11/21 04:20:33;;;;;;;22.85;11.27;;;;;;;;;;4964059;28;20065;-82
2022/11/21 04:22:58;;;;;;;22.23;10.90;;;;;;;;;;4978314;28;20038;-82
2022/11/21 04:25:24;;;;;;;22.52;11.10;;;;;;;;;;4990246;28;20045;-82
2022/11/21 04:27:49;;;;;;;23.25;10.43;;;;;;;;;;4983675;28;20038;-82
2022/11/21 04:30:14;;;;;;;24.20;10.13;;;;;;;;;;4985240;28;20026;-82
2022/11/21 04:32:40;;;;;;;21.25;9.43;;;;;;;;;;4983593;28;20121;-82
2022/11/21 04:35:06;;;;;;;24.60;11.40;;;;;;;;;;4981894;28;20066;-82
2022/11/21 04:37:31;;;;;;;23.48;10.82;;;;;;;;;;4979219;28;20034;-82
2022/11/21 04:39:57;;;;;;;21.25;9.80;;;;;;;;;;4982503;28;20529;-82
2022/11/21 04:42:23;;;;;;;19.23;8.90;;;;;;;;;;4988205;28;20598;-82
2022/11/21 04:44:48;;;;;;;19.33;9.65;;;;;;;;;;4983020;28;20081;-83
2022/11/21 04:47:13;;;;;;;19.85;9.80;;;;;;;;;;4986487;28;20026;-83
2022/11/21 04:49:39;;;;;;;22.15;9.85;;;;;;;;;;4998940;28;20493;-82
2022/11/21 04:52:04;;;;;;;23.55;10.25;;;;;;;;;;4981114;28;20747;-82
2022/11/21 04:54:29;;;;;;;21.80;10.25;;;;;;;;;;4982583;28;20045;-82
2022/11/21 04:56:55;;;;;;;24.35;10.10;;;;;;;;;;4982934;28;20042;-83
2022/11/21 04:59:20;;;;;;;23.08;10.02;;;;;;;;;;4981443;28;20042;-83
2022/11/21 05:01:45;;;;;;;22.98;10.20;;;;;;;;;;4985724;28;20041;-82
2022/11/21 05:04:11;;;;;;;19.95;9.75;;;;;;;;;;4980447;28;20084;-83
2022/11/21 05:06:36;;;;;;;22.00;9.85;;;;;;;;;;4982354;28;20129;-82
2022/11/21 05:09:02;;;;;;;19.95;9.05;;;;;;;;;;4977506;28;20390;-82
2022/11/21 05:14:11;;;;;;;18.23;9.85;;;;;;;;;;4982694;28;21702;-83
2022/11/21 05:16:36;;;;;;;18.02;8.90;;;;;;;;;;4984863;28;20022;-82
2022/11/21 05:19:01;;;;;;;18.30;8.73;;;;;;;;;;4986635;28;20032;-82
2022/11/21 05:21:27;;;;;;;18.77;9.25;;;;;;;;;;4987804;28;20046;-82
2022/11/21 05:23:52;;;;;;;19.13;9.60;;;;;;;;;;4987978;28;20411;-82
2022/11/21 05:26:17;;;;;;;16.35;8.20;;;;;;;;;;4987957;28;20034;-82
2022/11/21 05:28:43;;;;;;;15.35;8.30;;;;;;;;;;5000565;28;20026;-82
2022/11/21 05:31:08;;;;;;;15.60;8.45;;;;;;;;;;4983566;28;20029;-83
2022/11/21 05:33:33;;;;;;;18.17;8.48;;;;;;;;;;4985970;28;20553;-82
2022/11/21 05:35:59;;;;;;;17.67;9.20;;;;;;;;;;4983684;28;20018;-82
2022/11/21 05:38:24;;;;;;;18.17;9.27;;;;;;;;;;4984017;28;20030;-82
2022/11/21 05:40:52;;;;;;;16.63;8.52;;;;;;;;;;4979983;28;20152;-83
2022/11/21 05:46:01;;;;;;;16.40;8.57;;;;;;;;;;4987764;28;20498;-82
2022/11/21 05:48:27;;;;;;;16.67;9.00;;;;;;;;;;4983666;28;20022;-83
2022/11/21 05:50:52;;;;;;;14.77;8.10;;;;;;;;;;4980379;28;20027;-82
2022/11/21 05:53:19;;;;;;;12.85;7.72;;;;;;;;;;4986275;28;20462;-83
2022/11/21 05:55:44;;;;;;;13.38;7.40;;;;;;;;;;4985192;28;20455;-83
2022/11/21 05:58:10;;;;;;;14.00;7.43;;;;;;;;;;4986073;28;20077;-82
2022/11/21 06:00:36;;;;;;;16.02;8.10;;;;;;;;;;4977764;28;20165;-82
2022/11/21 06:05:46;;;;;;;13.57;6.88;;;;;;;;;;4981307;28;20089;-82
2022/11/21 06:08:11;;;;;;;14.52;7.88;;;;;;;;;;4978982;28;20027;-82
2022/11/21 06:10:36;;;;;;;14.18;7.50;;;;;;;;;;4982456;28;20081;-83
2022/11/21 06:13:24;;;;;;;14.10;7.75;;;;;;;;;;4986220;28;20018;-82
2022/11/21 06:15:58;;;;;;;12.52;7.15;;;;;;;;;;4981159;28;20505;-83
2022/11/21 06:18:25;;;;;;;13.65;7.70;;;;;;;;;;4977958;28;20033;-83
2022/11/21 06:20:50;;;;;;;13.88;8.13;;;;;;;;;;4985168;28;20639;-82
2022/11/21 06:23:16;;;;;;;12.40;7.70;;;;;;;;;;4979322;28;20050;-82
2022/11/21 06:25:43;;;;;;;14.05;7.57;;;;;;;;;;4978706;28;20037;-83
2022/11/21 06:28:08;;;;;;;14.25;7.07;;;;;;;;;;4984784;28;20029;-83
2022/11/21 06:30:34;;;;;;;13.70;7.65;;;;;;;;;;4986021;28;20022;-82
2022/11/21 06:33:02;;;;;;;14.30;8.00;;;;;;;;;;4980375;28;20038;-82
2022/11/21 06:35:28;;;;;;;13.80;8.20;;;;;;;;;;4983950;28;20038;-83
2022/11/21 06:37:56;;;;;;;13.88;8.32;;;;;;;;;;4987426;28;20038;-82
2022/11/21 06:40:21;;;;;;;15.25;8.30;;;;;;;;;;4980910;28;20077;-82
2022/11/21 06:42:46;;;;;;;15.65;8.52;;;;;;;;;;4986568;28;20053;-83
2022/11/21 06:45:12;;;;;;;15.43;8.45;;;;;;;;;;4985196;28;20387;-82
2022/11/21 06:47:38;;;;;;;17.63;8.60;;;;;;;;;;4984853;28;20030;-82
2022/11/21 06:50:04;;;;;;;14.65;8.18;;;;;;;;;;4985219;28;20521;-82
2022/11/21 06:52:32;;;;;;;15.93;8.82;;;;;;;;;;4985146;28;20030;-82
2022/11/21 06:54:58;;;;;;;16.20;8.23;;;;;;;;;;4982642;28;20042;-82
2022/11/21 06:57:23;;;;;;;16.80;8.73;;;;;;;;;;4980236;28;20033;-83
2022/11/21 06:59:49;;;;;;;16.42;8.27;;;;;;;;;;4980976;28;20034;-82
2022/11/21 07:02:14;;;;;;;16.50;8.52;;;;;;;;;;4981430;28;20085;-82
2022/11/21 07:04:40;;;;;;;18.73;9.50;;;;;;;;;;4982449;28;20026;-83
2022/11/21 07:07:05;;;;;;;17.17;9.40;;;;;;;;;;4991701;28;20030;-83
2022/11/21 07:09:32;;;;;;;18.08;9.27;;;;;;;;;;4986728;28;20081;-82
2022/11/21 07:13:20;;;;;;;17.60;8.95;;;;;;;;;;4981709;28;20027;-83
2022/11/21 07:14:43;;;;;;;17.17;9.25;;;;;;;;;;4984176;28;20144;-83
2022/11/21 07:17:13;;;;;;;18.00;9.27;;;;;;;;;;4980297;28;20117;-82
2022/11/21 07:19:39;;;;;;;20.25;9.32;;;;;;;;;;4992464;28;20378;-82
2022/11/21 07:22:04;;;;;;;17.73;8.77;;;;;;;;;;4992391;28;20047;-82
2022/11/21 07:24:30;;;;;;;16.17;8.32;;;;;;;;;;4985368;28;20038;-82
2022/11/21 07:26:55;;;;;;;15.20;8.38;;;;;;;;;;4985356;28;20037;-82
2022/11/21 07:29:20;;;;;;;19.40;9.57;;;;;;;;;;4985060;28;20034;-82
2022/11/21 07:31:45;;;;;;;18.27;9.43;;;;;;;;;;4985634;28;20026;-82
2022/11/21 07:34:11;;;;;;;20.08;9.98;;;;;;;;;;4988576;28;20474;-82
2022/11/21 07:36:36;;;;;;;20.77;9.38;;;;;;;;;;4990649;28;20044;-83
2022/11/21 07:39:02;;;;;;;22.08;9.85;;;;;;;;;;4986859;28;20050;-82
2022/11/21 07:41:27;;;;;;;21.60;10.05;;;;;;;;;;4981348;28;20038;-82
2022/11/21 07:43:53;;;;;;;20.38;10.40;;;;;;;;;;4983730;28;20026;-83
2022/11/21 07:46:18;;;;;;;19.95;9.27;;;;;;;;;;4983158;28;20029;-82
2022/11/21 07:48:43;;;;;;;21.45;9.73;;;;;;;;;;4991989;28;20463;-83
2022/11/21 07:51:09;;;;;;;18.58;9.63;;;;;;;;;;4986376;28;20022;-83
2022/11/21 07:53:35;;;;;;;22.02;9.90;;;;;;;;;;4985486;28;20409;-82
2022/11/21 07:56:01;;;;;;;20.80;11.23;;;;;;;;;;4987134;28;20053;-82
2022/11/21 07:58:26;;;;;;;19.58;9.93;;;;;;;;;;4998995;28;20036;-82
2022/11/21 08:00:52;;;;;;;18.38;9.60;;;;;;;;;;4983597;28;20076;-83
2022/11/21 08:03:18;;;;;;;20.23;8.98;;;;;;;;;;4989805;28;20102;-82
2022/11/21 08:05:43;;;;;;;19.63;9.68;;;;;;;;;;4980976;28;20121;-82
2022/11/21 08:08:10;;;;;;;18.42;9.63;;;;;;;;;;4989575;28;20030;-82
2022/11/21 08:10:41;;;;;;;18.50;9.35;;;;;;;;;;4988620;28;20727;-82
2022/11/21 08:13:06;;;;;;;20.98;10.25;;;;;;;;;;4990227;28;20081;-81
2022/11/21 08:15:32;;;;;;;18.20;9.40;;;;;;;;;;4985509;28;20034;-82
2022/11/21 08:17:57;;;;;;;17.67;9.13;;;;;;;;;;4986939;28;20026;-82
2022/11/21 08:20:22;;;;;;;19.05;10.05;;;;;;;;;;4989238;28;20109;-83
2022/11/21 08:22:48;;;;;;;17.42;9.73;;;;;;;;;;4972030;28;20381;-82
2022/11/21 08:25:13;;;;;;;19.30;9.63;;;;;;;;;;4968287;28;20391;-81
2022/11/21 08:27:39;;;;;;;17.35;9.15;;;;;;;;;;4971223;28;20030;-82
2022/11/21 08:30:10;;;;;;;17.58;9.60;;;;;;;;;;4972221;28;20054;-81
2022/11/21 08:32:36;;;;;;;17.60;9.00;;;;;;;;;;4965656;28;20117;-81
2022/11/21 08:35:01;;;;;;;16.70;9.32;;;;;;;;;;4970342;28;20106;-81
2022/11/21 08:37:30;;;;;;;16.05;9.13;;;;;;;;;;4965127;28;20522;-81
2022/11/21 08:39:57;;;;;;;17.88;9.07;;;;;;;;;;4973814;28;20101;-81
2022/11/21 08:42:23;;;;;;;18.30;9.52;;;;;;;;;;4968892;28;20026;-82
2022/11/21 08:44:49;;;;;;;15.52;9.07;;;;;;;;;;4967019;28;20510;-81
2022/11/21 08:47:14;;;;;;;18.20;8.60;;;;;;;;;;4972438;28;20031;-81
2022/11/21 08:49:40;;;;;;;15.75;9.48;;;;;;;;;;4966735;28;20031;-81
2022/11/21 08:52:05;;;;;;;15.70;9.38;;;;;;;;;;4965766;28;20019;-81
2022/11/21 08:54:31;;;;;;;18.75;9.15;;;;;;;;;;4972655;28;20415;-81
2022/11/21 08:56:56;;;;;;;13.40;7.93;;;;;;;;;;4968643;28;20502;-81
2022/11/21 08:59:22;;;;;;;14.23;8.32;;;;;;;;;;4961160;28;20053;-81
2022/11/21 09:01:47;;;;;;;13.18;8.23;;;;;;;;;;4964415;28;20038;-82
2022/11/21 09:04:12;;;;;;;15.75;8.20;;;;;;;;;;4968144;28;20066;-81
2022/11/21 09:06:38;;;;;;;14.35;7.53;;;;;;;;;;4968381;28;20037;-81
2022/11/21 09:09:05;;;;;;;15.45;8.15;;;;;;;;;;4969596;28;20040;-81
2022/11/21 09:11:31;;;;;;;13.55;7.68;;;;;;;;;;4963783;28;20027;-81
2022/11/21 09:19:26;;;;;;;16.08;8.18;;;;;;;;;;4972484;28;20518;-81
2022/11/21 09:21:51;;;;;;;15.38;9.07;;;;;;;;;;4983961;28;20038;-81
2022/11/21 09:24:17;;;;;;;12.75;7.55;;;;;;;;;;5012772;28;20025;-81
2022/11/21 09:26:43;;;;;;;16.35;8.32;;;;;;;;;;5012287;28;20026;-82
2022/11/21 09:29:10;;;;;;;12.05;7.28;;;;;;;;;;4984214;28;20394;-82
2022/11/21 09:31:38;;;;;;;11.73;7.65;;;;;;;;;;4987631;28;20028;-83
2022/11/21 09:34:04;;;;;;;13.65;7.47;;;;;;;;;;4994809;28;20037;-81
2022/11/21 09:36:29;;;;;;;11.77;7.13;;;;;;;;;;4994536;28;20390;-82
2022/11/21 09:38:55;;;;;;;14.35;8.02;;;;;;;;;;4989250;28;20034;-82
2022/11/21 09:41:51;;;;;;;13.35;7.82;;;;;;;;;;4989783;28;20386;-82
2022/11/21 09:44:38;;;;;;;14.45;7.47;;;;;;;;;;5004915;28;20030;-82
2022/11/21 09:47:29;;;;;;;13.80;6.43;;;;;;;;;;4987439;28;20072;-81
2022/11/21 09:50:05;;;;;;;12.73;5.95;;;;;;;;;;4989683;28;20522;-81
2022/11/21 09:52:40;;;;;;;10.55;6.30;;;;;;;;;;4988334;28;20022;-82
2022/11/21 09:55:34;;;;;;;11.38;6.25;;;;;;;;;;5008051;28;20092;-82
2022/11/21 09:58:04;;;;;;;10.63;5.78;;;;;;;;;;4986461;28;20052;-82
2022/11/21 10:00:29;;;;;;;11.15;6.20;;;;;;;;;;5009457;28;20054;-82
2022/11/21 10:02:56;;;;;;;9.98;5.72;;;;;;;;;;5009979;28;20101;-82
2022/11/21 10:05:53;;;;;;;9.40;5.75;;;;;;;;;;4992145;28;20191;-82
2022/11/21 10:08:32;;;;;;;10.05;5.25;;;;;;;;;;4987091;28;20498;-82
2022/11/21 10:12:35;;;;;;;9.65;4.70;;;;;;;;;;4995086;28;20025;-82
2022/11/21 10:14:44;;;;;;;10.40;5.20;;;;;;;;;;4983589;28;20045;-82
2022/11/21 10:17:17;;;;;;;8.30;4.72;;;;;;;;;;5009322;28;20545;-81
2022/11/21 10:19:50;;;;;;;;;;;;;;;;;;4991560;28;20029;-82
2022/11/21 10:22:41;;;;;;;6.70;3.88;;;;;;;;;;4991534;28;19917;-82
2022/11/21 10:25:29;;;;;;;9.90;4.20;;;;;;;;;;5002510;28;20026;-82
2022/11/21 10:28:14;;;;;;;6.68;3.45;;;;;;;;;;5004167;28;20030;-81
2022/11/21 10:30:42;;;;;;;8.48;4.38;;;;;;;;;;4987769;28;20101;-82
2022/11/21 10:33:16;;;;;;;9.52;4.32;;;;;;;;;;4986698;28;20474;-82
2022/11/21 10:35:45;;;;;;;9.05;4.35;;;;;;;;;;5004648;28;20033;-82
2022/11/21 10:38:23;;;;;;;7.78;4.22;;;;;;;;;;4998876;28;20037;-82
2022/11/21 10:40:59;;;;;;;8.77;4.20;;;;;;;;;;5009605;28;20022;-82
2022/11/21 10:46:28;;;;;;;9.57;3.67;;;;;;;;;;5010890;28;20110;-82
2022/11/21 10:49:02;;;;;;;11.05;4.22;;;;;;;;;;4990612;28;20029;-82
2022/11/21 10:51:38;;;;;;;11.63;4.07;;;;;;;;;;4990226;28;20069;-82
2022/11/21 10:56:47;;;;;;;6.85;3.70;;;;;;;;;;5006292;28;20117;-81
2022/11/21 10:59:26;;;;;;;6.82;3.50;;;;;;;;;;5012562;28;20108;-82
2022/11/21 11:02:14;;;;;;;7.00;3.63;;;;;;;;;;4994948;28;20041;-83
2022/11/21 11:04:40;;;;;;;8.00;3.42;;;;;;;;;;4986015;28;20513;-82
2022/11/21 11:07:26;;;;;;;7.60;4.07;;;;;;;;;;4994972;28;20026;-82
2022/11/21 11:10:12;;;;;;;7.15;3.60;;;;;;;;;;4994606;28;20022;-82
2022/11/21 11:15:23;;;;;;;8.90;3.80;;;;;;;;;;5009915;28;20476;-82
2022/11/21 11:18:03;;;;;;;9.57;3.50;;;;;;;;;;5007239;28;20413;-82
2022/11/21 11:20:39;;;;;;;12.82;4.10;;;;;;;;;;4989290;28;20028;-82
2022/11/21 11:23:23;;;;;;;5.88;3.38;;;;;;;;;;4985446;28;20053;-82
2022/11/21 11:25:59;;;;;;;7.88;3.30;;;;;;;;;;4990014;28;20026;-82
2022/11/21 11:28:32;;;;;;;6.97;3.40;;;;;;;;;;5005505;28;20041;-83
2022/11/21 11:30:57;;;;;;;6.93;3.45;;;;;;;;;;5009185;28;20029;-82
2022/11/21 11:33:40;;;;;;;5.38;3.00;;;;;;;;;;4991594;28;20383;-82
2022/11/21 11:36:14;;;;;;;6.25;3.20;;;;;;;;;;5012496;28;20391;-82
2022/11/21 11:38:57;;;;;;;8.15;3.33;;;;;;;;;;4996560;28;20037;-83
2022/11/21 11:47:38;;;;;;;8.45;3.78;;;;;;;;;;5008482;28;20172;-82
2022/11/21 11:50:15;;;;;;;6.63;3.45;;;;;;;;;;4982978;28;20026;-82
2022/11/21 11:53:02;;;;;;;5.70;2.97;;;;;;;;;;4991688;28;20030;-84
2022/11/21 11:55:27;;;;;;;6.32;2.83;;;;;;;;;;4989129;28;20168;-82
2022/11/21 11:57:58;;;;;;;7.30;3.38;;;;;;;;;;5005503;28;20418;-83
2022/11/21 12:00:40;;;;;;;7.78;3.50;;;;;;;;;;4987337;28;20406;-83
2022/11/21 12:03:11;;;;;;;6.88;3.40;;;;;;;;;;4994765;28;20022;-82
2022/11/21 12:05:50;;;;;;;6.55;3.08;;;;;;;;;;4995599;28;20040;-83
2022/11/21 12:08:47;;;;;;;7.25;3.53;;;;;;;;;;5004757;28;20044;-82
2022/11/21 12:17:20;;;;;;;7.07;2.55;;;;;;;;;;5005309;28;20643;-83
2022/11/21 12:19:47;;;;;;;6.88;2.90;;;;;;;;;;5003371;28;20025;-83
2022/11/21 12:22:12;;;;;;;6.05;2.92;;;;;;;;;;4992785;28;20133;-83
2022/11/21 12:24:38;;;;;;;6.78;2.67;;;;;;;;;;4982633;28;20122;-83
2022/11/21 12:27:33;;;;;;;5.47;2.58;;;;;;;;;;5007971;28;20033;-82
2022/11/21 12:30:23;;;;;;;6.13;2.50;;;;;;;;;;5007400;28;20044;-83
2022/11/21 12:33:02;;;;;;;7.53;2.65;;;;;;;;;;5006678;28;20022;-83
2022/11/21 12:35:52;;;;;;;6.65;2.95;;;;;;;;;;4994859;28;20037;-83
2022/11/21 12:38:39;;;;;;;6.10;2.88;;;;;;;;;;5009845;28;20126;-83
2022/11/21 12:44:17;;;;;;;7.22;2.65;;;;;;;;;;5012769;28;20072;-83
2022/11/21 12:46:57;;;;;;;8.50;3.38;;;;;;;;;;5005576;28;20030;-83
2022/11/21 12:55:24;;;;;;;;;;;;;;;;;;5007838;28;20033;-82
2022/11/21 12:57:58;;;;;;;6.95;3.58;;;;;;;;;;5006177;28;19929;-83
2022/11/21 13:00:56;;;;;;;6.75;3.10;;;;;;;;;;4995077;28;20168;-83
2022/11/21 13:03:48;;;;;;;8.35;3.65;;;;;;;;;;4987008;28;20041;-83
2022/11/21 13:06:44;;;;;;;6.68;3.55;;;;;;;;;;4980163;28;20076;-82
2022/11/21 13:09:20;;;;;;;6.72;3.35;;;;;;;;;;4991226;28;20479;-83
2022/11/21 13:11:58;;;;;;;9.15;3.05;;;;;;;;;;4987244;28;20390;-83
2022/11/21 13:14:36;;;;;;;8.27;2.70;;;;;;;;;;5005057;28;20076;-83
2022/11/21 13:17:12;;;;;;;6.25;2.72;;;;;;;;;;5006232;28;20034;-83
2022/11/21 13:19:58;;;;;;;6.20;2.38;;;;;;;;;;4986231;28;20038;-83
2022/11/21 13:22:35;;;;;;;7.32;2.95;;;;;;;;;;5002940;28;20080;-83
2022/11/21 13:25:37;;;;;;;5.45;2.22;;;;;;;;;;4986259;28;20025;-84
2022/11/21 13:28:22;;;;;;;9.63;2.42;;;;;;;;;;4988151;28;20393;-83
2022/11/21 13:30:54;;;;;;;8.15;2.50;;;;;;;;;;5001365;28;20025;-83
2022/11/21 13:33:38;;;;;;;5.72;2.28;;;;;;;;;;4989163;28;20133;-83
2022/11/21 13:36:11;;;;;;;5.15;1.75;;;;;;;;;;4992464;28;20026;-83
2022/11/21 13:39:14;;;;;;;5.07;1.80;;;;;;;;;;4992356;28;20660;-83
2022/11/21 13:44:42;;;;;;;4.68;1.58;;;;;;;;;;5004712;28;20282;-83
2022/11/21 13:47:11;;;;;;;8.98;2.38;;;;;;;;;;4986453;28;20037;-83
2022/11/21 13:49:42;;;;;;;4.63;1.98;;;;;;;;;;4982006;28;20116;-83
2022/11/21 13:52:26;;;;;;;5.18;1.95;;;;;;;;;;5008158;28;20021;-83
2022/11/21 13:55:16;;;;;;;4.70;1.77;;;;;;;;;;4989253;28;20038;-83
2022/11/21 13:58:19;;;;;;;4.97;2.00;;;;;;;;;;5002218;28;20547;-82
2022/11/21 14:00:57;;;;;;;4.53;1.80;;;;;;;;;;4990769;28;20022;-83
2022/11/21 14:04:02;;;;;;;4.38;1.90;;;;;;;;;;5006671;28;20030;-83
2022/11/21 14:06:40;;;;;;;5.57;1.98;;;;;;;;;;4990128;28;20034;-83
2022/11/21 14:09:12;;;;;;;3.92;1.70;;;;;;;;;;5000701;28;20029;-83
2022/11/21 14:11:50;;;;;;;6.55;2.17;;;;;;;;;;4984880;28;20073;-83
2022/11/21 14:14:32;;;;;;;5.10;2.08;;;;;;;;;;4991453;28;20072;-83
2022/11/21 14:17:26;;;;;;;8.43;2.47;;;;;;;;;;4988136;28;20057;-83
2022/11/21 14:19:54;;;;;;;5.95;2.30;;;;;;;;;;4983076;28;20490;-83
2022/11/21 14:22:50;;;;;;;5.53;2.35;;;;;;;;;;4978604;28;20045;-83
2022/11/21 14:25:39;;;;;;;5.03;1.88;;;;;;;;;;4985817;28;20136;-82
2022/11/21 14:28:10;;;;;;;7.03;2.28;;;;;;;;;;4998737;28;20405;-82
2022/11/21 14:30:37;;;;;;;6.93;2.50;;;;;;;;;;4982243;28;20371;-83
2022/11/21 14:33:33;;;;;;;5.03;2.05;;;;;;;;;;4989491;28;20080;-83
2022/11/21 14:36:17;;;;;;;4.50;1.85;;;;;;;;;;4986554;28;20053;-83
2022/11/21 14:38:51;;;;;;;7.10;2.25;;;;;;;;;;5008398;28;20502;-84
2022/11/21 14:41:22;;;;;;;7.18;2.38;;;;;;;;;;4983044;28;20433;-85
2022/11/21 14:43:49;;;;;;;5.38;2.25;;;;;;;;;;5009706;28;20109;-84
2022/11/21 14:46:15;;;;;;;3.85;1.88;;;;;;;;;;5006079;28;20552;-83
2022/11/21 14:48:41;;;;;;;5.35;2.33;;;;;;;;;;4987441;28;20026;-83
2022/11/21 14:51:26;;;;;;;4.18;1.88;;;;;;;;;;4993751;28;20398;-82
2022/11/21 14:53:53;;;;;;;6.00;2.30;;;;;;;;;;5005962;28;20083;-83
2022/11/21 14:56:23;;;;;;;5.90;1.70;;;;;;;;;;4981136;28;20029;-83
2022/11/21 14:58:50;;;;;;;4.20;1.85;;;;;;;;;;5006613;28;20064;-83
2022/11/21 15:01:24;;;;;;;5.38;2.00;;;;;;;;;;4990478;28;20173;-84
2022/11/21 15:04:23;;;;;;;6.30;2.25;;;;;;;;;;4992983;28;20021;-83
2022/11/21 15:06:51;;;;;;;4.68;2.15;;;;;;;;;;4990845;28;20489;-83
2022/11/21 15:09:16;;;;;;;4.55;1.83;;;;;;;;;;4984779;28;20029;-83
2022/11/21 15:11:48;;;;;;;6.82;2.22;;;;;;;;;;4993586;28;20029;-84
2022/11/21 15:14:22;;;;;;;8.90;2.22;;;;;;;;;;4991838;28;20486;-83
2022/11/21 15:16:50;;;;;;;6.38;2.20;;;;;;;;;;4985241;28;20030;-83
2022/11/21 15:19:24;;;;;;;7.50;2.10;;;;;;;;;;4984786;28;20023;-83
2022/11/21 15:21:52;;;;;;;5.22;1.80;;;;;;;;;;4986726;28;20084;-83
2022/11/21 15:24:28;;;;;;;3.88;1.90;;;;;;;;;;4997398;28;20084;-84
2022/11/21 15:26:57;;;;;;;4.35;2.08;;;;;;;;;;5003169;28;20048;-83
2022/11/21 15:29:23;;;;;;;8.48;2.53;;;;;;;;;;4987390;28;20042;-84
2022/11/21 15:32:08;;;;;;;4.90;2.28;;;;;;;;;;4983234;28;20444;-83
2022/11/21 15:34:34;;;;;;;6.47;2.08;;;;;;;;;;4985878;28;20037;-83
2022/11/21 15:37:04;;;;;;;4.97;2.20;;;;;;;;;;4985359;28;20032;-83